Time;durP1;ratioP1;P1;durP2;ratioP2;P2;SDS_P1;SDS_P2;PMS_P1;PMS_P2;Temp;Humidity;BMP_temperature;BMP_pressure;BME280_temperature;BME280_humidity;BME280_pressure;Samples;Min_cycle;Max_cycle;Signal;HPM_P1;HPM_P2
2023/05/23 00:00:41;;;;;;;6.40;4.10;;;;;;;12.18;66.90;96437.57;109053;1271;23254;-80
2023/05/23 00:03:30;;;;;;;5.80;3.80;;;;;;;12.01;66.41;96436.70;109025;1268;22476;-80
2023/05/23 00:06:06;;;;;;;5.50;4.00;;;;;;;11.78;66.70;96437.95;109040;1269;22546;-80
2023/05/23 00:08:39;;;;;;;6.30;4.20;;;;;;;11.72;66.87;96438.08;109083;1271;25245;-80
2023/05/23 00:11:12;;;;;;;7.70;4.50;;;;;;;11.69;66.92;96439.04;109023;1274;22563;-80
2023/05/23 00:13:43;;;;;;;6.50;4.30;;;;;;;11.73;67.24;96439.29;109013;1274;22483;-80
2023/05/23 00:16:15;;;;;;;6.30;4.10;;;;;;;11.79;67.35;96436.11;109062;1274;24347;-79
2023/05/23 00:18:46;;;;;;;5.20;4.00;;;;;;;11.81;67.24;96434.72;109039;1274;22518;-79
2023/05/23 00:21:17;;;;;;;4.60;3.80;;;;;;;11.60;67.07;96433.02;109062;1274;24235;-79
2023/05/23 00:23:49;;;;;;;6.40;4.30;;;;;;;11.48;67.61;96434.41;109070;1269;22487;-80
2023/05/23 00:26:20;;;;;;;5.70;3.50;;;;;;;11.39;67.78;96435.92;109062;1272;22658;-80
2023/05/23 00:28:51;;;;;;;9.20;4.00;;;;;;;11.33;68.18;96435.94;109077;1274;22569;-79
2023/05/23 00:31:22;;;;;;;4.50;3.70;;;;;;;11.38;68.27;96435.97;109047;1269;22513;-79
2023/05/23 00:33:56;;;;;;;5.00;3.80;;;;;;;11.42;68.08;96430.36;109068;1274;25492;-79
2023/05/23 00:36:28;;;;;;;5.40;4.00;;;;;;;11.46;68.27;96431.57;109086;1251;23617;-80
2023/05/23 00:39:01;;;;;;;7.20;4.10;;;;;;;11.48;68.08;96433.34;109065;1270;22595;-79
2023/05/23 00:41:34;;;;;;;7.30;4.50;;;;;;;11.45;67.99;96438.80;109063;1269;22660;-80
2023/05/23 00:44:08;;;;;;;7.40;3.90;;;;;;;11.44;67.99;96442.10;109030;1272;24527;-80
2023/05/23 00:46:40;;;;;;;7.70;4.30;;;;;;;11.39;67.99;96438.08;109072;1272;22904;-80
2023/05/23 00:49:11;;;;;;;5.60;4.10;;;;;;;11.37;67.90;96435.60;109126;1272;23060;-80
2023/05/23 00:51:43;;;;;;;6.60;4.30;;;;;;;11.39;68.02;96441.16;109110;1267;23034;-79
2023/05/23 00:54:15;;;;;;;5.50;4.20;;;;;;;11.43;68.26;96440.16;109043;1270;22468;-79
2023/05/23 00:56:49;;;;;;;6.90;4.60;;;;;;;11.44;68.11;96436.21;109084;1272;22566;-79
2023/05/23 00:59:23;;;;;;;7.30;4.40;;;;;;;11.34;67.94;96434.39;109070;1269;22490;-80
2023/05/23 01:01:55;;;;;;;6.30;4.10;;;;;;;11.23;68.01;96427.75;109018;1272;22455;-79
2023/05/23 01:04:27;;;;;;;8.30;4.20;;;;;;;11.19;68.24;96431.55;109068;1269;22559;-80
2023/05/23 01:06:59;;;;;;;6.70;4.30;;;;;;;11.14;68.10;96431.90;109051;1269;22817;-79
2023/05/23 01:09:31;;;;;;;5.40;3.70;;;;;;;11.03;68.22;96431.84;109037;1271;23829;-79
2023/05/23 01:12:17;;;;;;;6.10;3.90;;;;;;;10.95;68.59;96431.23;109034;1274;24304;-79
2023/05/23 01:14:54;;;;;;;6.60;4.50;;;;;;;10.92;68.92;96427.45;109074;1272;23814;-79
2023/05/23 01:17:32;;;;;;;6.50;4.30;;;;;;;10.90;69.11;96424.67;109163;1271;23036;-79
2023/05/23 01:20:09;;;;;;;6.60;4.30;;;;;;;10.89;69.22;96424.33;109126;1266;22456;-79
2023/05/23 01:23:10;;;;;;;5.70;4.50;;;;;;;10.88;69.29;96424.16;109134;1272;23803;-79
2023/05/23 01:25:59;;;;;;;5.40;4.00;;;;;;;10.93;69.48;96423.99;109152;1273;22484;-78
2023/05/23 01:28:37;;;;;;;8.40;4.50;;;;;;;10.95;69.49;96419.77;109164;1273;22475;-78
2023/05/23 01:31:11;;;;;;;5.60;4.00;;;;;;;10.96;69.74;96417.27;109086;1274;23696;-79
2023/05/23 01:33:46;;;;;;;4.90;3.80;;;;;;;11.03;69.64;96422.02;109216;1273;22469;-79
2023/05/23 01:36:17;;;;;;;6.90;4.40;;;;;;;11.06;69.66;96417.51;109184;1266;23756;-79
2023/05/23 01:38:48;;;;;;;5.70;4.00;;;;;;;11.10;69.56;96411.09;109149;1250;23787;-79
2023/05/23 01:41:19;;;;;;;7.70;4.90;;;;;;;11.13;69.71;96411.97;109159;1266;22569;-79
2023/05/23 01:43:52;;;;;;;8.60;5.00;;;;;;;11.24;69.82;96407.77;109167;1252;22508;-79
2023/05/23 01:46:24;;;;;;;5.90;4.70;;;;;;;11.36;69.72;96403.52;109160;1273;22527;-79
2023/05/23 01:49:01;;;;;;;7.90;4.80;;;;;;;11.41;69.53;96404.36;109171;1273;22536;-79
2023/05/23 01:51:32;;;;;;;6.70;4.60;;;;;;;11.39;69.39;96405.12;109188;1273;23926;-79
2023/05/23 01:54:06;;;;;;;5.80;4.60;;;;;;;11.40;69.40;96399.48;109147;1274;23300;-80
2023/05/23 01:56:43;;;;;;;6.00;4.10;;;;;;;11.29;69.27;96400.60;109153;1274;22638;-79
2023/05/23 01:59:13;;;;;;;7.70;4.60;;;;;;;11.27;69.72;96404.39;109124;1272;22673;-80
2023/05/23 02:01:47;;;;;;;5.80;4.70;;;;;;;11.33;69.90;96402.34;109145;1270;22573;-79
2023/05/23 02:04:18;;;;;;;6.10;4.30;;;;;;;11.36;69.87;96403.35;109211;1274;25940;-79
2023/05/23 02:06:49;;;;;;;7.60;4.80;;;;;;;11.28;69.91;96408.05;109193;1274;25387;-79
2023/05/23 02:09:20;;;;;;;6.90;4.80;;;;;;;11.32;70.22;96399.86;109160;1266;22529;-79
2023/05/23 02:11:51;;;;;;;9.40;5.20;;;;;;;11.37;70.32;96399.73;109170;1273;22517;-79
2023/05/23 02:14:22;;;;;;;6.50;5.00;;;;;;;11.35;70.12;96396.85;109225;1266;22519;-79
2023/05/23 02:16:54;;;;;;;6.00;4.50;;;;;;;11.20;69.96;96399.82;109179;1274;24317;-79
2023/05/23 02:19:25;;;;;;;7.80;5.20;;;;;;;11.13;70.29;96398.16;109173;1274;22817;-79
2023/05/23 02:21:56;;;;;;;6.20;4.80;;;;;;;11.17;70.48;96393.88;109119;1274;22459;-79
2023/05/23 02:24:27;;;;;;;6.70;4.70;;;;;;;11.23;70.58;96397.90;109189;1266;24369;-79
2023/05/23 02:26:58;;;;;;;7.10;5.00;;;;;;;11.28;70.46;96393.55;109184;1274;25231;-79
2023/05/23 02:29:29;;;;;;;7.30;4.80;;;;;;;11.33;70.44;96393.36;109173;1271;22509;-78
2023/05/23 02:32:00;;;;;;;8.10;4.90;;;;;;;11.43;70.39;96393.55;109127;1274;25084;-79
2023/05/23 02:34:31;;;;;;;7.60;4.80;;;;;;;11.48;70.27;96384.70;109168;1273;24217;-79
2023/05/23 02:37:02;;;;;;;6.00;4.80;;;;;;;11.51;69.94;96383.17;109128;1274;22592;-79
2023/05/23 02:39:34;;;;;;;6.50;4.50;;;;;;;11.46;69.87;96382.08;109199;1273;25434;-79
2023/05/23 02:42:06;;;;;;;7.50;5.00;;;;;;;11.41;69.87;96381.00;109136;1272;24655;-79
2023/05/23 02:44:40;;;;;;;8.70;5.10;;;;;;;11.41;70.09;96378.08;109144;1273;22682;-79
2023/05/23 02:47:11;;;;;;;7.60;4.60;;;;;;;11.43;70.16;96374.70;109164;1273;22675;-79
2023/05/23 02:49:42;;;;;;;7.30;5.60;;;;;;;11.45;70.13;96376.74;109159;1266;24280;-80
2023/05/23 02:52:13;;;;;;;6.60;4.50;;;;;;;11.46;70.15;96373.85;109096;1273;22653;-79
2023/05/23 02:54:46;;;;;;;8.10;5.70;;;;;;;11.45;69.97;96371.76;109157;1273;23048;-79
2023/05/23 02:57:17;;;;;;;8.80;4.80;;;;;;;11.43;70.06;96369.92;109138;1274;22586;-80
2023/05/23 02:59:48;;;;;;;5.70;4.70;;;;;;;11.46;70.12;96367.11;109153;1273;24271;-79
2023/05/23 03:02:20;;;;;;;7.00;4.40;;;;;;;11.53;70.27;96367.47;109135;1273;25448;-79
2023/05/23 03:04:51;;;;;;;8.90;4.50;;;;;;;11.61;70.14;96365.28;109133;1272;23872;-79
2023/05/23 03:07:22;;;;;;;8.00;4.60;;;;;;;11.66;70.19;96366.30;109163;1272;22519;-79
2023/05/23 03:09:53;;;;;;;8.10;4.80;;;;;;;11.69;70.00;96365.11;109070;1273;22615;-79
2023/05/23 03:12:24;;;;;;;8.20;4.70;;;;;;;11.71;69.96;96363.11;109129;1273;22475;-80
2023/05/23 03:14:55;;;;;;;10.20;4.80;;;;;;;11.76;69.99;96361.00;109108;1274;25429;-80
2023/05/23 03:17:26;;;;;;;8.20;5.00;;;;;;;11.88;70.00;96362.32;109163;1267;23811;-79
2023/05/23 03:19:58;;;;;;;7.10;4.80;;;;;;;11.91;69.77;96361.41;109107;1273;22500;-79
2023/05/23 03:22:29;;;;;;;9.00;5.10;;;;;;;11.95;69.72;96361.08;109062;1273;22853;-80
2023/05/23 03:25:00;;;;;;;9.40;5.20;;;;;;;11.94;69.64;96355.63;109151;1274;22501;-79
2023/05/23 03:27:31;;;;;;;6.10;4.70;;;;;;;11.94;69.73;96355.13;109133;1270;23190;-79
2023/05/23 03:30:02;;;;;;;9.20;5.40;;;;;;;11.97;69.70;96353.45;109144;1274;22542;-79
2023/05/23 03:32:33;;;;;;;9.20;5.40;;;;;;;11.98;69.64;96353.59;109116;1266;22523;-79
2023/05/23 03:35:04;;;;;;;7.00;4.70;;;;;;;12.07;69.68;96354.48;109093;1274;22511;-79
2023/05/23 03:37:35;;;;;;;9.00;4.70;;;;;;;12.15;69.65;96348.98;109122;1274;22524;-79
2023/05/23 03:40:09;;;;;;;8.00;4.80;;;;;;;12.19;69.55;96349.21;109125;1274;23786;-79
2023/05/23 03:42:42;;;;;;;6.70;4.50;;;;;;;12.22;69.49;96346.23;109126;1273;22546;-79
2023/05/23 03:45:13;;;;;;;6.20;4.50;;;;;;;12.35;69.51;96346.20;109100;1273;22518;-79
2023/05/23 03:47:44;;;;;;;7.90;5.30;;;;;;;12.52;69.30;96347.56;109100;1270;22576;-79
2023/05/23 03:50:15;;;;;;;7.90;4.90;;;;;;;12.73;69.12;96345.34;109091;1274;22531;-80
2023/05/23 03:52:46;;;;;;;7.50;4.90;;;;;;;12.86;68.81;96345.59;109144;1273;24019;-79
2023/05/23 03:55:21;;;;;;;8.10;4.70;;;;;;;12.99;68.46;96346.89;109109;1274;22511;-79
2023/05/23 03:57:54;;;;;;;7.40;4.50;;;;;;;13.14;68.27;96339.73;109104;1274;22520;-79
2023/05/23 04:00:25;;;;;;;8.20;5.10;;;;;;;13.27;68.00;96341.48;109135;1273;23025;-80
2023/05/23 04:02:56;;;;;;;5.50;4.20;;;;;;;13.37;67.73;96345.86;109137;1273;22537;-80
2023/05/23 04:05:27;;;;;;;12.20;4.90;;;;;;;13.46;67.47;96339.09;109146;1266;22539;-79
2023/05/23 04:08:00;;;;;;;5.50;4.50;;;;;;;13.57;67.26;96340.63;109169;1274;22537;-79
2023/05/23 04:10:33;;;;;;;8.80;5.00;;;;;;;13.65;67.07;96341.37;109104;1263;22651;-80
2023/05/23 04:13:05;;;;;;;6.20;4.60;;;;;;;13.76;66.98;96342.86;109126;1270;22633;-80
2023/05/23 04:15:36;;;;;;;5.70;4.20;;;;;;;13.87;66.77;96344.97;109136;1271;22617;-80
2023/05/23 04:18:09;;;;;;;5.50;4.20;;;;;;;13.96;66.36;96347.99;109130;1273;24922;-80
2023/05/23 04:20:40;;;;;;;5.50;4.00;;;;;;;14.07;65.94;96348.42;109106;1273;22471;-80
2023/05/23 04:23:11;;;;;;;7.80;4.60;;;;;;;14.15;65.78;96345.36;109155;1269;22582;-80
2023/05/23 04:25:42;;;;;;;7.20;4.60;;;;;;;14.27;65.51;96343.84;109089;1269;25326;-80
2023/05/23 04:28:16;;;;;;;6.50;4.60;;;;;;;14.39;64.95;96342.33;109116;1273;22569;-80
2023/05/23 04:30:48;;;;;;;8.50;4.90;;;;;;;14.50;64.51;96342.48;109112;1274;22534;-80
2023/05/23 04:33:19;;;;;;;5.60;4.10;;;;;;;14.59;64.32;96340.74;109138;1273;24161;-80
2023/05/23 04:35:59;;;;;;;8.70;4.00;;;;;;;14.67;63.64;96338.07;109141;1273;23314;-80
2023/05/23 04:38:32;;;;;;;6.80;4.80;;;;;;;14.74;63.07;96336.45;109125;1273;22467;-80
2023/05/23 04:41:04;;;;;;;4.90;4.00;;;;;;;14.88;63.19;96337.82;109090;1273;22559;-80
2023/05/23 04:43:41;;;;;;;6.20;4.00;;;;;;;15.00;62.25;96330.90;109123;1273;24282;-80
2023/05/23 04:46:13;;;;;;;6.30;4.20;;;;;;;15.16;62.49;96331.16;109127;1274;23870;-80
2023/05/23 04:48:45;;;;;;;7.20;4.60;;;;;;;15.34;62.31;96327.45;109131;1273;25404;-80
2023/05/23 04:51:16;;;;;;;5.20;3.70;;;;;;;15.47;62.09;96328.83;109051;1267;22635;-79
2023/05/23 04:53:47;;;;;;;5.60;4.20;;;;;;;15.57;60.96;96321.55;109152;1269;22460;-80
2023/05/23 04:56:21;;;;;;;6.00;3.80;;;;;;;15.69;60.96;96324.98;109176;1267;22516;-79
2023/05/23 04:58:52;;;;;;;6.80;4.10;;;;;;;15.95;60.50;96326.62;109113;1267;22504;-80
2023/05/23 05:01:24;;;;;;;6.40;4.40;;;;;;;16.67;61.21;96325.89;109156;1273;22550;-80
2023/05/23 05:03:55;;;;;;;4.30;3.50;;;;;;;18.18;59.08;96323.71;109101;1270;24147;-80
2023/05/23 05:06:28;;;;;;;7.00;4.20;;;;;;;19.50;55.15;96320.39;109138;1273;24225;-80
2023/05/23 05:08:59;;;;;;;5.70;4.20;;;;;;;20.76;53.21;96317.57;109099;1273;22670;-80
2023/05/23 05:11:30;;;;;;;5.80;4.30;;;;;;;21.94;51.79;96320.92;109094;1273;22600;-80
2023/05/23 05:14:01;;;;;;;4.80;3.30;;;;;;;23.31;50.60;96323.77;109135;1274;22616;-80
2023/05/23 05:16:35;;;;;;;7.20;4.10;;;;;;;24.02;46.34;96316.02;109129;1267;22536;-80
2023/05/23 05:19:06;;;;;;;6.90;3.60;;;;;;;24.44;46.53;96318.33;109150;1251;22794;-81
2023/05/23 05:21:37;;;;;;;5.90;4.00;;;;;;;25.55;45.55;96312.21;109146;1273;22484;-81
2023/05/23 05:24:09;;;;;;;6.40;3.90;;;;;;;26.55;44.59;96318.08;109122;1270;22522;-81
2023/05/23 05:26:40;;;;;;;4.60;3.60;;;;;;;26.85;40.63;96314.51;109140;1273;22607;-80
2023/05/23 05:29:12;;;;;;;6.10;4.10;;;;;;;26.99;40.95;96313.55;109140;1273;25294;-81
2023/05/23 05:31:44;;;;;;;5.00;4.10;;;;;;;27.75;40.39;96318.67;109128;1273;22473;-81
2023/05/23 05:34:15;;;;;;;4.70;3.40;;;;;;;28.74;39.97;96318.40;109113;1274;22456;-81
2023/05/23 05:36:47;;;;;;;5.20;3.80;;;;;;;29.50;38.10;96316.33;109121;1270;22597;-81
2023/05/23 05:39:18;;;;;;;4.60;3.90;;;;;;;29.39;36.75;96317.98;109175;1273;22465;-81
2023/05/23 05:41:49;;;;;;;5.00;3.30;;;;;;;29.62;36.92;96315.23;109151;1268;22577;-81
2023/05/23 05:44:20;;;;;;;6.60;4.10;;;;;;;30.13;35.49;96312.47;109165;1273;22568;-81
2023/05/23 05:46:52;;;;;;;5.50;3.60;;;;;;;30.10;34.83;96315.80;109149;1273;22533;-81
2023/05/23 05:49:25;;;;;;;5.90;3.70;;;;;;;29.85;33.93;96315.32;109132;1267;22549;-81
2023/05/23 05:51:56;;;;;;;3.60;3.20;;;;;;;29.75;34.21;96317.34;109149;1273;24213;-81
2023/05/23 05:54:30;;;;;;;4.90;3.50;;;;;;;30.27;33.44;96310.21;109184;1274;22552;-82
2023/05/23 05:57:04;;;;;;;4.70;3.40;;;;;;;30.80;33.61;96306.87;109143;1273;23152;-81
2023/05/23 05:59:35;;;;;;;7.80;3.70;;;;;;;31.36;32.80;96306.02;109112;1272;22526;-81
2023/05/23 06:02:09;;;;;;;3.20;2.70;;;;;;;31.70;32.31;96302.27;109108;1270;24053;-81
2023/05/23 06:04:45;;;;;;;5.60;3.50;;;;;;;32.50;31.61;96303.61;109165;1272;22519;-81
2023/05/23 06:07:17;;;;;;;6.00;3.40;;;;;;;32.96;31.46;96298.95;109137;1251;23587;-82
2023/05/23 06:09:50;;;;;;;6.00;3.90;;;;;;;33.75;30.88;96294.81;109128;1274;22480;-81
2023/05/23 06:12:21;;;;;;;4.70;3.20;;;;;;;34.29;30.32;96292.33;109105;1273;22531;-82
2023/05/23 06:14:52;;;;;;;3.90;3.10;;;;;;;34.45;30.01;96288.45;109126;1270;22570;-82
2023/05/23 06:17:24;;;;;;;4.70;3.30;;;;;;;35.47;30.08;96287.52;109066;1273;22522;-82
2023/05/23 06:19:55;;;;;;;3.50;3.10;;;;;;;36.31;28.92;96289.81;109126;1273;23717;-81
2023/05/23 06:22:26;;;;;;;3.90;3.10;;;;;;;36.83;28.44;96286.89;109019;1267;22716;-82
2023/05/23 06:24:57;;;;;;;4.30;2.90;;;;;;;37.79;27.97;96285.19;109055;1273;25280;-82
2023/05/23 06:27:31;;;;;;;3.50;2.80;;;;;;;38.63;27.32;96282.10;109009;1273;22522;-82
2023/05/23 06:30:05;;;;;;;4.80;2.90;;;;;;;39.76;25.91;96281.55;109022;1275;22864;-82
2023/05/23 06:32:36;;;;;;;5.00;3.10;;;;;;;39.90;25.15;96282.45;109082;1274;22749;-82
2023/05/23 06:35:11;;;;;;;5.10;3.20;;;;;;;39.96;24.89;96279.64;109125;1267;23728;-82
2023/05/23 06:37:44;;;;;;;5.80;3.20;;;;;;;40.18;24.79;96280.31;109109;1267;22543;-82
2023/05/23 06:40:16;;;;;;;4.80;2.90;;;;;;;40.96;23.63;96287.52;109077;1273;22530;-82
2023/05/23 06:42:47;;;;;;;4.70;3.10;;;;;;;41.34;23.42;96289.05;109066;1273;25942;-82
2023/05/23 06:45:18;;;;;;;4.60;3.40;;;;;;;42.07;23.74;96290.38;109115;1267;22550;-80
2023/05/23 06:47:49;;;;;;;3.50;3.00;;;;;;;42.89;23.53;96285.34;109092;1274;22656;-80
2023/05/23 06:50:20;;;;;;;5.20;3.20;;;;;;;43.58;20.85;96283.17;109116;1267;23238;-80
2023/05/23 06:52:52;;;;;;;3.50;3.20;;;;;;;41.54;20.07;96280.48;109087;1263;23702;-80
2023/05/23 06:55:25;;;;;;;5.00;3.30;;;;;;;40.26;21.79;96277.36;109182;1270;23912;-82
2023/05/23 06:57:57;;;;;;;6.20;3.60;;;;;;;40.21;22.35;96279.15;109109;1274;22538;-83
2023/05/23 07:00:28;;;;;;;5.10;3.10;;;;;;;39.80;22.06;96274.00;109123;1267;22653;-84
2023/05/23 07:03:02;;;;;;;3.70;3.40;;;;;;;38.89;22.44;96271.04;109127;1266;22458;-82
2023/05/23 07:05:35;;;;;;;5.60;3.80;;;;;;;39.52;22.93;96271.98;109159;1268;25411;-81
2023/05/23 07:08:09;;;;;;;4.80;3.90;;;;;;;38.65;22.08;96274.38;109135;1267;24315;-81
2023/05/23 07:10:41;;;;;;;4.80;3.60;;;;;;;37.59;23.41;96273.14;109060;1273;52546;-81
2023/05/23 07:13:14;;;;;;;4.80;3.60;;;;;;;37.79;23.07;96268.91;109155;1266;24228;-83
2023/05/23 07:15:48;;;;;;;4.50;3.50;;;;;;;37.53;23.49;96269.56;109112;1267;22514;-82
2023/05/23 07:18:20;;;;;;;5.20;3.40;;;;;;;37.50;22.45;96270.02;109126;1267;22547;-82
2023/05/23 07:20:51;;;;;;;3.80;3.40;;;;;;;37.13;24.25;96268.85;109095;1273;25310;-81
2023/05/23 07:23:26;;;;;;;5.00;3.60;;;;;;;38.46;24.23;96266.86;109157;1266;22489;-81
2023/05/23 07:26:02;;;;;;;4.10;3.70;;;;;;;39.44;22.60;96268.04;109075;1273;25256;-82
2023/05/23 07:28:33;;;;;;;3.70;3.40;;;;;;;39.23;22.44;96266.16;109099;1273;25416;-82
2023/05/23 07:31:08;;;;;;;7.90;3.70;;;;;;;39.92;23.40;96268.78;109102;1267;23557;-81
2023/05/23 07:33:39;;;;;;;4.10;3.70;;;;;;;40.99;21.39;96268.89;109150;1273;22582;-84
2023/05/23 07:36:10;;;;;;;5.60;3.60;;;;;;;39.96;21.45;96266.11;109202;1267;22548;-85
2023/05/23 07:38:42;;;;;;;7.00;3.60;;;;;;;40.75;22.58;96270.17;109153;1273;22693;-84
2023/05/23 07:41:12;;;;;;;5.10;3.40;;;;;;;41.55;20.13;96272.98;109093;1273;23857;-83
2023/05/23 07:43:43;;;;;;;6.90;3.70;;;;;;;39.85;19.93;96271.45;109170;1265;22561;-83
2023/05/23 07:46:15;;;;;;;4.50;3.70;;;;;;;38.59;21.76;96268.13;109134;1270;22549;-84
2023/05/23 07:48:47;;;;;;;6.90;4.00;;;;;;;39.46;21.11;96268.84;109114;1267;23724;-84
2023/05/23 07:51:21;;;;;;;4.40;3.70;;;;;;;39.16;21.93;96271.56;109102;1273;22628;-83
2023/05/23 07:53:52;;;;;;;5.10;3.80;;;;;;;39.77;21.84;96270.58;109119;1267;22653;-85
2023/05/23 07:56:23;;;;;;;5.30;3.80;;;;;;;39.86;21.19;96268.41;109167;1270;22532;-85
2023/05/23 07:58:54;;;;;;;5.00;4.10;;;;;;;40.09;22.13;96270.95;109048;1266;22480;-84
2023/05/23 08:01:27;;;;;;;5.80;3.70;;;;;;;40.97;21.66;96273.71;108940;1273;22483;-84
2023/05/23 08:03:58;;;;;;;5.20;3.70;;;;;;;41.37;21.88;96271.72;109065;1270;22959;-84
2023/05/23 08:06:30;;;;;;;7.00;4.00;;;;;;;41.90;20.99;96272.12;109157;1269;23623;-83
2023/05/23 08:09:02;;;;;;;6.10;3.70;;;;;;;42.66;21.47;96271.94;109131;1273;22645;-84
2023/05/23 08:11:33;;;;;;;5.30;3.80;;;;;;;44.03;21.09;96272.56;109112;1273;25417;-84
2023/05/23 08:14:04;;;;;;;4.70;3.80;;;;;;;44.43;18.84;96270.84;109352;1267;22528;-83
2023/05/23 08:16:36;;;;;;;5.40;3.80;;;;;;;44.14;20.11;96274.50;109576;1273;23822;-83
2023/05/23 08:19:07;;;;;;;4.00;3.50;;;;;;;44.59;17.72;96275.05;109113;1273;23244;-83
2023/05/23 08:21:38;;;;;;;4.50;3.70;;;;;;;41.72;17.79;96275.64;109113;1273;22573;-83
2023/05/23 08:24:11;;;;;;;4.80;4.20;;;;;;;40.59;20.47;96272.77;109077;1274;22487;-83
2023/05/23 08:26:44;;;;;;;4.00;3.20;;;;;;;41.94;20.48;96272.70;109114;1273;23817;-83
2023/05/23 08:29:18;;;;;;;4.20;3.80;;;;;;;41.74;19.25;96273.59;109132;1273;25934;-83
2023/05/23 08:31:49;;;;;;;4.90;4.20;;;;;;;41.03;19.79;96276.58;109114;1272;22556;-83
2023/05/23 08:34:22;;;;;;;4.50;3.60;;;;;;;40.69;20.46;96272.72;109098;1273;22480;-83
2023/05/23 08:36:53;;;;;;;5.00;4.30;;;;;;;39.36;20.77;96271.61;109150;1267;25403;-82
2023/05/23 08:39:25;;;;;;;5.50;4.50;;;;;;;37.57;22.70;96267.17;109093;1273;22661;-82
2023/05/23 08:41:56;;;;;;;9.20;7.20;;;;;;;38.01;23.62;96266.48;109110;1273;22538;-83
2023/05/23 08:44:27;;;;;;;11.10;8.60;;;;;;;37.57;22.39;96266.75;109114;1273;22518;-82
2023/05/23 08:47:04;;;;;;;10.90;8.60;;;;;;;36.48;24.09;96269.46;109127;1273;24189;-82
2023/05/23 08:49:37;;;;;;;8.20;6.60;;;;;;;37.35;24.31;96267.58;109142;1273;22479;-82
2023/05/23 08:52:12;;;;;;;8.00;6.10;;;;;;;37.67;24.08;96272.21;109119;1268;24933;-82
2023/05/23 08:54:44;;;;;;;8.30;6.50;;;;;;;36.82;24.08;96269.45;109058;1269;22594;-82
2023/05/23 08:57:15;;;;;;;8.20;5.70;;;;;;;35.32;24.87;96267.21;109087;1272;25250;-82
2023/05/23 08:59:46;;;;;;;7.10;5.20;;;;;;;34.14;25.82;96266.55;109131;1269;24245;-81
2023/05/23 09:02:18;;;;;;;9.10;5.30;;;;;;;32.15;27.74;96267.64;109090;1273;22527;-81
2023/05/23 09:04:50;;;;;;;8.80;6.00;;;;;;;30.77;29.63;96264.52;109119;1273;22590;-80
2023/05/23 09:07:21;;;;;;;7.50;5.50;;;;;;;29.91;30.50;96264.34;109111;1273;22518;-82
2023/05/23 09:09:54;;;;;;;5.50;4.60;;;;;;;29.49;31.45;96263.48;109104;1267;22482;-82
2023/05/23 09:12:25;;;;;;;6.70;5.10;;;;;;;28.31;33.11;96266.14;109111;1273;22519;-82
2023/05/23 09:14:57;;;;;;;8.70;5.60;;;;;;;27.61;33.98;96265.20;109093;1273;22710;-81
2023/05/23 09:17:28;;;;;;;7.50;5.80;;;;;;;26.89;35.78;96269.02;109156;1273;23740;-82
2023/05/23 09:19:59;;;;;;;6.80;4.70;;;;;;;26.36;36.78;96265.42;109122;1273;22573;-81
2023/05/23 09:22:30;;;;;;;6.70;5.40;;;;;;;26.18;37.22;96260.22;109111;1273;22547;-82
2023/05/23 09:25:01;;;;;;;7.30;5.50;;;;;;;26.30;37.19;96262.86;109097;1267;22540;-85
2023/05/23 09:27:33;;;;;;;7.30;4.80;;;;;;;26.68;37.41;96267.27;109119;1266;22774;-85
2023/05/23 09:30:09;;;;;;;9.20;5.20;;;;;;;27.00;36.71;96265.81;109105;1273;25287;-85
2023/05/23 09:32:40;;;;;;;5.90;5.10;;;;;;;27.18;36.48;96270.91;109141;1273;22526;-85
2023/05/23 09:35:12;;;;;;;7.30;5.00;;;;;;;27.25;36.45;96265.59;109116;1273;22478;-85
2023/05/23 09:37:47;;;;;;;7.80;4.90;;;;;;;27.21;35.90;96265.77;108988;1272;180784;-84
2023/05/23 09:40:18;;;;;;;8.90;5.30;;;;;;;26.78;36.90;96257.70;109098;1273;22537;-85
2023/05/23 09:42:50;;;;;;;10.90;5.00;;;;;;;26.74;36.94;96259.10;109129;1273;23209;-85
2023/05/23 09:45:29;;;;;;;6.30;5.20;;;;;;;26.83;37.86;96261.49;109127;1273;22614;-84
2023/05/23 09:48:00;;;;;;;6.70;4.70;;;;;;;26.91;37.37;96260.30;109100;1267;22572;-84
2023/05/23 09:50:34;;;;;;;7.40;5.10;;;;;;;26.96;37.10;96257.65;109114;1267;22853;-86
2023/05/23 09:53:05;;;;;;;8.00;4.60;;;;;;;26.67;36.29;96254.23;109123;1267;22493;-84
2023/05/23 09:55:36;;;;;;;7.50;4.60;;;;;;;26.11;36.13;96250.89;109150;1267;22606;-82
2023/05/23 09:58:09;;;;;;;7.10;4.80;;;;;;;25.73;37.67;96247.67;109146;1267;25406;-85
2023/05/23 10:00:41;;;;;;;9.70;5.40;;;;;;;25.57;38.14;96248.55;109018;1269;22465;-84
2023/05/23 10:03:13;;;;;;;8.60;5.40;;;;;;;25.52;38.85;96244.57;109086;1266;22616;-83
2023/05/23 10:05:47;;;;;;;8.80;5.70;;;;;;;25.41;38.71;96245.23;109094;1270;23760;-84
2023/05/23 10:08:25;;;;;;;9.70;5.20;;;;;;;25.23;39.52;96245.10;109050;1266;22661;-84
2023/05/23 10:11:50;;;;;;;9.30;4.90;;;;;;;25.03;39.66;96243.84;109075;1266;22557;-83
2023/05/23 10:14:21;;;;;;;6.70;5.30;;;;;;;24.39;40.59;96242.35;109186;1265;22530;-83
2023/05/23 10:17:07;;;;;;;7.60;5.50;;;;;;;24.05;41.19;96242.47;109219;1273;22491;-84
2023/05/23 10:19:43;;;;;;;9.40;5.50;;;;;;;23.92;41.62;96241.81;109129;1267;22552;-83
2023/05/23 10:22:16;;;;;;;8.00;5.40;;;;;;;23.87;42.05;96241.98;109182;1270;22547;-83
2023/05/23 10:24:48;;;;;;;8.90;5.00;;;;;;;23.74;41.57;96237.30;109103;1273;22550;-84
2023/05/23 10:27:20;;;;;;;7.40;4.70;;;;;;;23.84;42.52;96230.29;109108;1250;22526;-84
2023/05/23 10:29:51;;;;;;;7.70;5.30;;;;;;;23.94;41.66;96228.91;109115;1266;24272;-84
2023/05/23 10:32:24;;;;;;;9.70;5.40;;;;;;;24.01;42.14;96227.35;109097;1250;24269;-83
2023/05/23 10:35:00;;;;;;;8.80;5.30;;;;;;;24.20;42.16;96218.36;109108;1266;25418;-83
2023/05/23 10:37:36;;;;;;;8.20;5.60;;;;;;;24.36;42.32;96217.96;109165;1273;23098;-83
2023/05/23 10:40:18;;;;;;;8.20;5.50;;;;;;;24.52;42.41;96216.83;109104;1272;22561;-84
2023/05/23 10:42:57;;;;;;;8.10;5.70;;;;;;;24.71;42.73;96213.23;109080;1267;25400;-82
2023/05/23 10:45:29;;;;;;;8.00;5.60;;;;;;;24.89;42.68;96209.44;109094;1273;23826;-82
2023/05/23 10:48:01;;;;;;;6.70;5.20;;;;;;;25.06;42.47;96210.39;109187;1273;22475;-84
2023/05/23 10:50:38;;;;;;;5.40;4.70;;;;;;;25.10;41.39;96207.23;109121;1268;23529;-85
2023/05/23 10:53:15;;;;;;;6.80;4.70;;;;;;;25.07;41.94;96209.23;109111;1273;22520;-84
2023/05/23 10:55:50;;;;;;;7.40;4.80;;;;;;;25.25;42.28;96202.08;109118;1267;22455;-84
2023/05/23 10:58:22;;;;;;;5.50;4.90;;;;;;;25.42;42.58;96196.54;109111;1273;22517;-84
2023/05/23 11:00:57;;;;;;;7.10;5.10;;;;;;;25.58;42.69;96195.73;109042;1268;22536;-84
2023/05/23 11:03:36;;;;;;;17.20;5.50;;;;;;;25.70;42.04;96189.70;109054;1273;22585;-84
2023/05/23 11:06:28;;;;;;;6.20;4.50;;;;;;;25.78;41.90;96192.98;109150;1273;25254;-84
2023/05/23 11:09:06;;;;;;;6.70;4.80;;;;;;;25.85;41.74;96185.61;109103;1268;22462;-83
2023/05/23 11:12:01;;;;;;;7.80;4.70;;;;;;;25.92;41.77;96190.52;109132;1267;22607;-83
2023/05/23 11:14:52;;;;;;;7.80;5.40;;;;;;;26.00;42.11;96188.95;109079;1267;22524;-80
2023/05/23 11:17:33;;;;;;;7.20;5.00;;;;;;;26.08;41.99;96185.77;109064;1273;24901;-80
2023/05/23 11:20:11;;;;;;;5.20;4.40;;;;;;;26.01;41.41;96187.79;109026;1273;22534;-80
2023/05/23 11:22:58;;;;;;;9.70;4.30;;;;;;;26.00;41.13;96185.52;109061;1273;25232;-80
2023/05/23 11:25:43;;;;;;;7.50;4.50;;;;;;;25.90;40.36;96176.46;109109;1273;22555;-81
2023/05/23 11:28:15;;;;;;;8.70;5.10;;;;;;;25.23;39.76;96177.19;109131;1273;23863;-81
2023/05/23 11:30:49;;;;;;;7.80;4.50;;;;;;;24.71;40.39;96169.55;109061;1266;22491;-81
2023/05/23 11:33:20;;;;;;;9.60;5.30;;;;;;;24.70;41.18;96162.71;109174;1273;22472;-81
2023/05/23 11:35:53;;;;;;;6.60;4.80;;;;;;;24.67;41.44;96163.80;109216;1273;25268;-81
2023/05/23 11:38:24;;;;;;;6.50;4.30;;;;;;;24.64;41.64;96165.48;109158;1273;22513;-83
2023/05/23 11:40:56;;;;;;;6.20;4.60;;;;;;;24.54;40.98;96160.62;109098;1273;25323;-80
2023/05/23 11:43:27;;;;;;;5.60;4.30;;;;;;;24.33;41.65;96156.63;109072;1267;22593;-81
2023/05/23 11:46:07;;;;;;;7.40;5.10;;;;;;;24.40;42.32;96158.14;109084;1273;24861;-81
2023/05/23 11:48:44;;;;;;;5.70;4.80;;;;;;;24.53;41.70;96159.61;109103;1269;24489;-81
2023/05/23 11:51:18;;;;;;;9.30;5.30;;;;;;;24.66;41.62;96161.30;109064;1267;23700;-82